Time;durP1;ratioP1;P1;durP2;ratioP2;P2;SDS_P1;SDS_P2;PMS_P1;PMS_P2;Temp;Humidity;BMP_temperature;BMP_pressure;BME280_temperature;BME280_humidity;BME280_pressure;Samples;Min_cycle;Max_cycle;Signal;HPM_P1;HPM_P2
2022/07/03 00:01:20;;;;;;;6.50;3.42;;;;;;;;;;4984997;28;20125;-91
2022/07/03 00:03:46;;;;;;;8.93;3.55;;;;;;;;;;5001208;28;20037;-91
2022/07/03 00:06:12;;;;;;;7.10;3.50;;;;;;;;;;5000198;28;20034;-91
2022/07/03 00:08:38;;;;;;;4.28;3.05;;;;;;;;;;4985276;28;20030;-91
2022/07/03 00:11:05;;;;;;;7.35;3.35;;;;;;;;;;4993230;28;20062;-91
2022/07/03 00:13:32;;;;;;;5.45;3.30;;;;;;;;;;5002332;28;20034;-91
2022/07/03 00:15:58;;;;;;;6.95;3.42;;;;;;;;;;5006866;28;20033;-91
2022/07/03 00:18:24;;;;;;;6.95;3.78;;;;;;;;;;4989664;28;20859;-91
2022/07/03 00:20:52;;;;;;;6.03;3.33;;;;;;;;;;4999876;28;20028;-90
2022/07/03 00:23:18;;;;;;;10.45;5.22;;;;;;;;;;5001113;28;20057;-91
2022/07/03 00:25:45;;;;;;;5.80;3.80;;;;;;;;;;5003244;28;20033;-91
2022/07/03 00:28:11;;;;;;;10.00;4.00;;;;;;;;;;5000528;28;20236;-91
2022/07/03 00:30:37;;;;;;;6.03;3.75;;;;;;;;;;5003967;28;20468;-91
2022/07/03 00:33:04;;;;;;;5.05;3.58;;;;;;;;;;5002973;28;20038;-91
2022/07/03 00:35:35;;;;;;;9.30;4.50;;;;;;;;;;4992573;28;20477;-91
2022/07/03 00:38:02;;;;;;;4.40;3.47;;;;;;;;;;4989265;28;20088;-91
2022/07/03 00:40:28;;;;;;;6.93;4.38;;;;;;;;;;4984063;28;20148;-91
2022/07/03 00:42:54;;;;;;;7.75;4.10;;;;;;;;;;4992000;28;20029;-91
2022/07/03 00:45:21;;;;;;;12.10;4.57;;;;;;;;;;5003725;28;20057;-92
2022/07/03 00:47:48;;;;;;;9.40;4.20;;;;;;;;;;4985777;28;20018;-91
2022/07/03 00:50:17;;;;;;;13.07;5.55;;;;;;;;;;4996471;28;20646;-91
2022/07/03 00:52:46;;;;;;;8.85;4.40;;;;;;;;;;4992667;28;20473;-91
2022/07/03 00:55:15;;;;;;;11.82;5.10;;;;;;;;;;4981699;28;20117;-91
2022/07/03 00:57:44;;;;;;;9.27;5.53;;;;;;;;;;4991487;28;20176;-91
2022/07/03 01:00:11;;;;;;;6.80;5.18;;;;;;;;;;4989892;28;20030;-91
2022/07/03 01:02:46;;;;;;;10.32;5.32;;;;;;;;;;4991388;28;20033;-91
2022/07/03 01:05:32;;;;;;;7.03;4.38;;;;;;;;;;4992190;28;20444;-91
2022/07/03 01:07:58;;;;;;;;;;;;;;;;;;4987614;28;20029;-91
2022/07/03 01:10:57;;;;;;;8.70;5.07;;;;;;;;;;4984341;28;19909;-91
2022/07/03 01:13:39;;;;;;;19.90;7.07;;;;;;;;;;4950751;28;20077;-91
2022/07/03 01:16:15;;;;;;;10.40;5.50;;;;;;;;;;4984802;28;20022;-91
2022/07/03 01:18:46;;;;;;;9.73;5.40;;;;;;;;;;4995966;28;20034;-91
2022/07/03 01:21:34;;;;;;;16.95;5.55;;;;;;;;;;4991936;28;20038;-91
2022/07/03 01:24:21;;;;;;;9.27;5.05;;;;;;;;;;5006583;28;20046;-91
2022/07/03 01:26:48;;;;;;;7.72;5.72;;;;;;;;;;4992478;28;20430;-92
2022/07/03 01:29:18;;;;;;;7.78;5.80;;;;;;;;;;4989220;28;20033;-91
2022/07/03 01:31:47;;;;;;;9.98;5.57;;;;;;;;;;4986558;28;20034;-91
2022/07/03 01:34:14;;;;;;;9.75;6.38;;;;;;;;;;4996206;28;20030;-91
2022/07/03 01:36:42;;;;;;;9.70;6.18;;;;;;;;;;4985445;28;20034;-91
2022/07/03 01:39:10;;;;;;;13.90;5.82;;;;;;;;;;5001100;28;20030;-90
2022/07/03 01:41:37;;;;;;;9.45;5.93;;;;;;;;;;4995370;28;20033;-91
2022/07/03 01:44:04;;;;;;;13.55;6.53;;;;;;;;;;4985654;28;20053;-91
2022/07/03 01:46:31;;;;;;;20.83;7.25;;;;;;;;;;4969628;28;20042;-91
2022/07/03 01:48:58;;;;;;;15.40;7.38;;;;;;;;;;4982735;28;20112;-91
2022/07/03 01:51:24;;;;;;;11.73;7.78;;;;;;;;;;4987110;28;20085;-91
2022/07/03 01:53:51;;;;;;;12.82;7.35;;;;;;;;;;4971879;28;20026;-91
2022/07/03 01:56:18;;;;;;;11.48;7.03;;;;;;;;;;4987918;28;20511;-91
2022/07/03 01:58:44;;;;;;;11.98;6.88;;;;;;;;;;4975853;28;20018;-91
2022/07/03 02:01:10;;;;;;;15.00;7.45;;;;;;;;;;4972865;28;20057;-91
2022/07/03 02:03:40;;;;;;;14.25;7.20;;;;;;;;;;4972737;28;20042;-91
2022/07/03 02:06:08;;;;;;;12.15;7.70;;;;;;;;;;4969520;28;20085;-91
2022/07/03 02:08:44;;;;;;;16.13;7.90;;;;;;;;;;4989423;28;20407;-91
2022/07/03 02:11:29;;;;;;;14.52;7.10;;;;;;;;;;4965935;28;20031;-92
2022/07/03 02:14:12;;;;;;;12.48;8.68;;;;;;;;;;4974510;28;20030;-91
2022/07/03 02:16:57;;;;;;;12.55;8.02;;;;;;;;;;4972108;28;20027;-92
2022/07/03 02:19:32;;;;;;;12.43;7.30;;;;;;;;;;4969431;28;20030;-92
2022/07/03 02:21:58;;;;;;;14.55;7.28;;;;;;;;;;4970604;28;20050;-91
2022/07/03 02:24:26;;;;;;;18.65;8.02;;;;;;;;;;4972472;28;20089;-91
2022/07/03 02:26:55;;;;;;;11.95;7.07;;;;;;;;;;4982277;28;20061;-91
2022/07/03 02:29:24;;;;;;;10.05;7.25;;;;;;;;;;4990032;28;20541;-90
2022/07/03 02:31:56;;;;;;;12.80;7.55;;;;;;;;;;4968383;28;20034;-91
2022/07/03 02:34:23;;;;;;;13.10;7.25;;;;;;;;;;4982371;28;20402;-91
2022/07/03 02:36:51;;;;;;;9.82;6.80;;;;;;;;;;4976050;28;20501;-91
2022/07/03 02:39:24;;;;;;;10.75;6.80;;;;;;;;;;4971979;28;20027;-91
2022/07/03 02:41:53;;;;;;;11.93;7.18;;;;;;;;;;4971634;28;20049;-91
2022/07/03 02:44:29;;;;;;;11.32;7.38;;;;;;;;;;4977468;28;20054;-91
2022/07/03 02:47:10;;;;;;;16.23;8.30;;;;;;;;;;5006692;28;20025;-91
2022/07/03 02:49:48;;;;;;;16.17;8.43;;;;;;;;;;5008567;28;20030;-91
2022/07/03 02:52:33;;;;;;;12.25;7.70;;;;;;;;;;4991422;28;20025;-91
2022/07/03 02:55:14;;;;;;;14.10;6.95;;;;;;;;;;4990486;28;20018;-91
2022/07/03 02:57:43;;;;;;;11.48;7.70;;;;;;;;;;4987646;28;20473;-91
2022/07/03 03:00:10;;;;;;;9.30;6.97;;;;;;;;;;4996133;28;20049;-91
2022/07/03 03:02:39;;;;;;;13.50;7.47;;;;;;;;;;4991830;28;20045;-92
2022/07/03 03:05:16;;;;;;;10.95;7.20;;;;;;;;;;4991258;28;20049;-91
2022/07/03 03:07:48;;;;;;;12.00;7.38;;;;;;;;;;4990853;28;20542;-91
2022/07/03 03:10:16;;;;;;;8.57;6.75;;;;;;;;;;5002233;28;20069;-91
2022/07/03 03:12:46;;;;;;;17.15;7.47;;;;;;;;;;4990625;28;20030;-91
2022/07/03 03:15:12;;;;;;;17.17;7.03;;;;;;;;;;4986580;28;20029;-91
2022/07/03 03:17:50;;;;;;;11.13;6.82;;;;;;;;;;4983169;28;20031;-91
2022/07/03 03:20:18;;;;;;;9.88;7.47;;;;;;;;;;4978957;28;20322;-91
2022/07/03 03:22:57;;;;;;;13.98;6.68;;;;;;;;;;4986509;28;20477;-91
2022/07/03 03:25:23;;;;;;;14.57;6.78;;;;;;;;;;4982221;28;20516;-91
2022/07/03 03:27:49;;;;;;;11.68;7.07;;;;;;;;;;4986729;28;20095;-90
2022/07/03 03:30:15;;;;;;;13.00;6.45;;;;;;;;;;4987810;28;20034;-92
2022/07/03 03:32:42;;;;;;;9.10;6.78;;;;;;;;;;4981054;28;20548;-91
2022/07/03 03:35:08;;;;;;;14.82;6.82;;;;;;;;;;4982745;28;20187;-91
2022/07/03 03:37:34;;;;;;;12.07;6.85;;;;;;;;;;4985247;28;20041;-92
2022/07/03 03:40:02;;;;;;;14.80;7.18;;;;;;;;;;4981503;28;20282;-91
2022/07/03 03:42:28;;;;;;;10.10;6.00;;;;;;;;;;4984830;28;20079;-91
2022/07/03 03:44:54;;;;;;;13.20;6.60;;;;;;;;;;4977266;28;20049;-90
2022/07/03 03:47:20;;;;;;;8.80;5.78;;;;;;;;;;4966242;28;20039;-91
2022/07/03 03:49:46;;;;;;;11.15;5.97;;;;;;;;;;4968532;28;20039;-91
2022/07/03 03:52:12;;;;;;;7.22;5.60;;;;;;;;;;4969685;28;20023;-91
2022/07/03 03:54:38;;;;;;;10.38;6.00;;;;;;;;;;4971459;28;20042;-91
2022/07/03 03:57:18;;;;;;;12.40;6.07;;;;;;;;;;4974512;28;20105;-92
2022/07/03 03:59:44;;;;;;;11.60;6.13;;;;;;;;;;4974037;28;20034;-91
2022/07/03 04:02:10;;;;;;;8.38;6.32;;;;;;;;;;4972082;28;20532;-92
2022/07/03 04:04:36;;;;;;;9.68;5.75;;;;;;;;;;4965261;28;21296;-91
2022/07/03 04:07:05;;;;;;;13.70;7.03;;;;;;;;;;4970476;28;20030;-92
2022/07/03 04:09:31;;;;;;;6.70;5.22;;;;;;;;;;4971460;28;20033;-90
2022/07/03 04:11:57;;;;;;;7.32;5.80;;;;;;;;;;4971209;28;20509;-91
2022/07/03 04:14:23;;;;;;;10.80;5.57;;;;;;;;;;4969490;28;20026;-91
2022/07/03 04:16:49;;;;;;;6.00;5.40;;;;;;;;;;4975922;28;20053;-91
2022/07/03 04:19:15;;;;;;;8.65;5.80;;;;;;;;;;4970334;28;20022;-91
2022/07/03 04:21:42;;;;;;;11.77;7.25;;;;;;;;;;4969201;28;20494;-91
2022/07/03 04:24:08;;;;;;;10.95;6.03;;;;;;;;;;4966767;28;20759;-91
2022/07/03 04:26:34;;;;;;;18.48;7.35;;;;;;;;;;4985972;28;20045;-91
2022/07/03 04:29:00;;;;;;;12.40;6.88;;;;;;;;;;4968556;28;20433;-92
2022/07/03 04:31:26;;;;;;;9.88;6.53;;;;;;;;;;4970158;28;20090;-91
2022/07/03 04:33:52;;;;;;;9.80;6.40;;;;;;;;;;4972677;28;20088;-92
2022/07/03 04:36:18;;;;;;;10.55;6.10;;;;;;;;;;4981470;28;20101;-91
2022/07/03 04:38:44;;;;;;;11.98;6.10;;;;;;;;;;4979667;28;20050;-91
2022/07/03 04:41:10;;;;;;;10.93;6.13;;;;;;;;;;4964642;28;20037;-91
2022/07/03 04:43:36;;;;;;;10.38;6.70;;;;;;;;;;4979937;28;20026;-91
2022/07/03 04:46:09;;;;;;;6.45;5.20;;;;;;;;;;4984341;28;20529;-91
2022/07/03 04:48:35;;;;;;;8.75;4.88;;;;;;;;;;4969991;28;20068;-91
2022/07/03 04:51:01;;;;;;;7.32;5.18;;;;;;;;;;4979470;28;20144;-91
2022/07/03 04:53:27;;;;;;;6.60;4.88;;;;;;;;;;4984852;28;20033;-91
2022/07/03 04:55:53;;;;;;;12.35;5.05;;;;;;;;;;4986047;28;20036;-91
2022/07/03 04:58:19;;;;;;;6.32;5.03;;;;;;;;;;4986529;28;20034;-91
2022/07/03 05:00:45;;;;;;;9.90;5.15;;;;;;;;;;4984638;28;20526;-91
2022/07/03 05:03:12;;;;;;;7.22;5.15;;;;;;;;;;4983950;28;20027;-91
2022/07/03 05:05:38;;;;;;;7.78;4.88;;;;;;;;;;4971642;28;20069;-91
2022/07/03 05:08:04;;;;;;;6.97;4.43;;;;;;;;;;4986007;28;20489;-91
2022/07/03 05:10:30;;;;;;;9.10;4.45;;;;;;;;;;4968471;28;20042;-92
2022/07/03 05:12:56;;;;;;;7.95;5.13;;;;;;;;;;4986530;28;20034;-91
2022/07/03 05:15:23;;;;;;;13.73;4.35;;;;;;;;;;4975638;28;20058;-91
2022/07/03 05:17:49;;;;;;;9.57;5.47;;;;;;;;;;4996942;28;20371;-91
2022/07/03 05:20:24;;;;;;;10.35;5.30;;;;;;;;;;4972502;28;20069;-91
2022/07/03 05:22:54;;;;;;;7.88;4.43;;;;;;;;;;4986151;28;20034;-91
2022/07/03 05:25:20;;;;;;;12.27;5.05;;;;;;;;;;4970112;28;20034;-91
2022/07/03 05:27:46;;;;;;;6.55;4.20;;;;;;;;;;4994704;28;20540;-92
2022/07/03 05:30:12;;;;;;;5.90;4.25;;;;;;;;;;4988068;28;20646;-91
2022/07/03 05:32:39;;;;;;;7.97;4.72;;;;;;;;;;4967905;28;20030;-91
2022/07/03 05:35:05;;;;;;;5.93;4.35;;;;;;;;;;4971754;28;20031;-91
2022/07/03 05:37:31;;;;;;;10.55;4.18;;;;;;;;;;4989141;28;20064;-91
2022/07/03 05:39:57;;;;;;;6.50;3.72;;;;;;;;;;4970644;28;20038;-91
2022/07/03 05:42:23;;;;;;;6.78;3.75;;;;;;;;;;4990268;28;20043;-91
2022/07/03 05:45:02;;;;;;;8.65;2.70;;;;;;;;;;4976787;28;20555;-91
2022/07/03 05:47:28;;;;;;;5.72;3.40;;;;;;;;;;4990114;28;20034;-91
2022/07/03 05:49:54;;;;;;;6.22;3.35;;;;;;;;;;4991599;28;20488;-91
2022/07/03 05:52:20;;;;;;;5.05;2.00;;;;;;;;;;4999757;28;20045;-91
2022/07/03 05:54:46;;;;;;;2.67;1.38;;;;;;;;;;4990685;28;20033;-91
2022/07/03 05:57:12;;;;;;;6.57;1.40;;;;;;;;;;4990445;28;20394;-91
2022/07/03 05:59:38;;;;;;;2.42;1.30;;;;;;;;;;4989933;28;20496;-91
2022/07/03 06:02:05;;;;;;;5.03;1.60;;;;;;;;;;5004569;28;20065;-92
2022/07/03 06:04:31;;;;;;;5.38;1.30;;;;;;;;;;5004564;28;20030;-91
2022/07/03 06:06:57;;;;;;;2.45;1.70;;;;;;;;;;4991717;28;20425;-91
2022/07/03 06:09:23;;;;;;;3.63;1.42;;;;;;;;;;4995511;28;20052;-91
2022/07/03 06:11:49;;;;;;;2.75;1.73;;;;;;;;;;5007343;28;20032;-91
2022/07/03 06:14:15;;;;;;;12.82;1.90;;;;;;;;;;5005777;28;20030;-91
2022/07/03 06:16:41;;;;;;;5.72;1.67;;;;;;;;;;4996286;28;20136;-92
2022/07/03 06:19:07;;;;;;;6.35;1.92;;;;;;;;;;5001340;28;20030;-91
2022/07/03 06:21:34;;;;;;;1.88;1.73;;;;;;;;;;4990654;28;20068;-91
2022/07/03 06:24:00;;;;;;;4.28;1.98;;;;;;;;;;4991711;28;20579;-91
2022/07/03 06:26:26;;;;;;;3.58;1.60;;;;;;;;;;4991744;28;20034;-91
2022/07/03 06:28:52;;;;;;;4.65;1.50;;;;;;;;;;5004778;28;20044;-91
2022/07/03 06:31:18;;;;;;;7.18;1.77;;;;;;;;;;4988579;28;20038;-91
2022/07/03 06:33:44;;;;;;;2.35;1.20;;;;;;;;;;5002407;28;20030;-91
2022/07/03 06:36:11;;;;;;;5.90;1.23;;;;;;;;;;4987967;28;20018;-91
2022/07/03 06:38:37;;;;;;;1.95;1.10;;;;;;;;;;4988448;28;20553;-92
2022/07/03 06:41:03;;;;;;;12.63;2.83;;;;;;;;;;4997545;28;20034;-91
2022/07/03 06:43:29;;;;;;;1.88;1.33;;;;;;;;;;4987089;28;20030;-91
2022/07/03 06:45:55;;;;;;;2.28;1.50;;;;;;;;;;4986435;28;20136;-91
2022/07/03 06:48:21;;;;;;;2.85;1.67;;;;;;;;;;5000218;28;20049;-90
2022/07/03 06:50:47;;;;;;;3.95;1.45;;;;;;;;;;5005801;28;20049;-91
2022/07/03 06:53:13;;;;;;;7.47;1.30;;;;;;;;;;5001297;28;20038;-92
2022/07/03 06:55:39;;;;;;;3.53;1.20;;;;;;;;;;4999574;28;20041;-91
2022/07/03 06:58:05;;;;;;;2.50;1.50;;;;;;;;;;4983165;28;20120;-91
2022/07/03 07:00:31;;;;;;;3.03;1.40;;;;;;;;;;4985180;28;20025;-92
2022/07/03 07:02:57;;;;;;;4.55;1.35;;;;;;;;;;4985423;28;20057;-91
2022/07/03 07:05:23;;;;;;;3.88;1.83;;;;;;;;;;4983835;28;20496;-91
2022/07/03 07:07:50;;;;;;;4.05;1.20;;;;;;;;;;4990159;28;20125;-91
2022/07/03 07:10:16;;;;;;;3.47;1.13;;;;;;;;;;4981953;28;20085;-91
2022/07/03 07:12:42;;;;;;;4.35;1.58;;;;;;;;;;4981231;28;20099;-91
2022/07/03 07:15:08;;;;;;;4.68;1.70;;;;;;;;;;5002632;28;20048;-91
2022/07/03 07:17:43;;;;;;;3.03;1.40;;;;;;;;;;4985533;28;20025;-92
2022/07/03 07:20:09;;;;;;;2.20;1.30;;;;;;;;;;4984301;28;20437;-92
2022/07/03 07:22:39;;;;;;;3.97;1.55;;;;;;;;;;4986709;28;20038;-92
2022/07/03 07:25:07;;;;;;;2.13;1.35;;;;;;;;;;5004085;28;20080;-92
2022/07/03 07:27:49;;;;;;;3.33;1.83;;;;;;;;;;5005457;28;20038;-93
2022/07/03 07:30:15;;;;;;;1.77;1.20;;;;;;;;;;4988212;28;20025;-93
2022/07/03 07:32:44;;;;;;;4.25;1.83;;;;;;;;;;4986192;28;20072;-92
2022/07/03 07:35:14;;;;;;;2.72;1.25;;;;;;;;;;4997977;28;20065;-93
2022/07/03 07:37:40;;;;;;;5.28;1.67;;;;;;;;;;5001279;28;20030;-93
2022/07/03 07:40:09;;;;;;;2.25;1.23;;;;;;;;;;5012408;28;20025;-93
2022/07/03 07:42:35;;;;;;;3.60;1.27;;;;;;;;;;4994063;28;20026;-93
2022/07/03 07:45:01;;;;;;;2.60;1.30;;;;;;;;;;4986340;28;20419;-95
2022/07/03 07:47:30;;;;;;;3.00;1.30;;;;;;;;;;4994754;28;20033;-93
2022/07/03 07:50:01;;;;;;;2.15;1.73;;;;;;;;;;5002222;28;20122;-93
2022/07/03 07:52:46;;;;;;;5.70;1.52;;;;;;;;;;4987579;28;20026;-94
2022/07/03 07:55:14;;;;;;;3.03;1.50;;;;;;;;;;4987127;28;20034;-93
2022/07/03 07:57:46;;;;;;;4.32;1.65;;;;;;;;;;4989464;28;20026;-94
2022/07/03 08:00:13;;;;;;;4.30;1.58;;;;;;;;;;4996099;28;20125;-92
2022/07/03 08:05:40;;;;;;;3.60;1.63;;;;;;;;;;4999662;28;20448;-93
2022/07/03 08:08:11;;;;;;;9.57;2.05;;;;;;;;;;5000105;28;20037;-91
2022/07/03 08:10:38;;;;;;;4.10;1.60;;;;;;;;;;4987799;28;20030;-92
2022/07/03 08:13:04;;;;;;;3.67;1.65;;;;;;;;;;4998374;28;20040;-91
2022/07/03 08:15:39;;;;;;;5.15;1.45;;;;;;;;;;4999634;28;20371;-91
2022/07/03 08:18:05;;;;;;;3.38;1.67;;;;;;;;;;4996956;28;20392;-93
2022/07/03 08:20:32;;;;;;;4.40;1.05;;;;;;;;;;4991203;28;20072;-91
2022/07/03 08:22:58;;;;;;;4.53;1.10;;;;;;;;;;4985812;28;20043;-92
2022/07/03 08:25:24;;;;;;;1.88;1.20;;;;;;;;;;4986710;28;20034;-93
2022/07/03 08:27:50;;;;;;;5.32;1.42;;;;;;;;;;5004988;28;20033;-92
2022/07/03 08:30:34;;;;;;;2.17;1.00;;;;;;;;;;4991374;28;20053;-92
2022/07/03 08:33:05;;;;;;;1.98;1.27;;;;;;;;;;4984929;28;20140;-96
2022/07/03 08:35:39;;;;;;;2.90;1.10;;;;;;;;;;4986223;28;20038;-95
2022/07/03 08:38:38;;;;;;;;;;;;;;;;;;;;;
2022/07/03 08:44:29;;;;;;;3.35;1.20;;;;;;;;;;4943535;28;20054;-95
2022/07/03 08:47:00;;;;;;;4.50;1.20;;;;;;;;;;4900684;29;20056;-95
2022/07/03 08:52:40;;;;;;;3.13;1.38;;;;;;;;;;4980222;28;20027;-92
2022/07/03 08:58:06;;;;;;;9.45;1.52;;;;;;;;;;4971097;28;20096;-93
2022/07/03 09:00:32;;;;;;;1.90;1.00;;;;;;;;;;4977929;28;20243;-94
2022/07/03 09:02:59;;;;;;;3.35;1.08;;;;;;;;;;4977927;28;20021;-93
2022/07/03 09:05:25;;;;;;;1.65;1.23;;;;;;;;;;4977818;28;20038;-93
2022/07/03 09:07:52;;;;;;;5.32;0.98;;;;;;;;;;4977210;28;20038;-93
2022/07/03 09:10:19;;;;;;;2.40;0.88;;;;;;;;;;4975404;28;20479;-93
2022/07/03 09:12:49;;;;;;;2.10;1.00;;;;;;;;;;4979554;28;20466;-94
2022/07/03 09:15:15;;;;;;;2.30;0.63;;;;;;;;;;4975007;28;20106;-94
2022/07/03 09:17:59;;;;;;;1.45;1.20;;;;;;;;;;4976498;28;20038;-93
2022/07/03 09:20:35;;;;;;;1.08;0.70;;;;;;;;;;4971758;28;20026;-92
2022/07/03 09:23:12;;;;;;;2.13;0.95;;;;;;;;;;4990623;28;20393;-95
2022/07/03 09:25:51;;;;;;;4.03;0.70;;;;;;;;;;4972644;28;20486;-94
2022/07/03 09:28:17;;;;;;;0.80;0.70;;;;;;;;;;4983023;28;20042;-95
2022/07/03 09:30:59;;;;;;;0.77;0.63;;;;;;;;;;4979559;28;20519;-92
2022/07/03 09:33:25;;;;;;;1.17;0.85;;;;;;;;;;4973984;28;20623;-91
2022/07/03 09:35:55;;;;;;;2.83;0.90;;;;;;;;;;4977466;28;20023;-92
2022/07/03 09:38:24;;;;;;;6.68;1.00;;;;;;;;;;4979746;28;20034;-93
2022/07/03 09:40:51;;;;;;;4.80;1.13;;;;;;;;;;4972357;28;20030;-94
2022/07/03 09:43:22;;;;;;;1.17;1.02;;;;;;;;;;4972024;28;20500;-95
2022/07/03 09:45:56;;;;;;;3.17;1.00;;;;;;;;;;4978406;28;20046;-94
2022/07/03 09:48:23;;;;;;;3.75;1.20;;;;;;;;;;4996903;28;20115;-94
2022/07/03 09:50:52;;;;;;;0.50;0.50;;;;;;;;;;4991128;28;20029;-94
2022/07/03 09:53:18;;;;;;;1.60;0.98;;;;;;;;;;4995746;28;20029;-93
2022/07/03 09:55:56;;;;;;;1.05;0.90;;;;;;;;;;5015078;28;20044;-93
2022/07/03 09:58:22;;;;;;;1.20;0.77;;;;;;;;;;4991384;28;20029;-93
2022/07/03 10:00:48;;;;;;;3.53;1.10;;;;;;;;;;4994585;28;20025;-93
2022/07/03 10:03:14;;;;;;;5.80;1.30;;;;;;;;;;5010617;28;20071;-94
2022/07/03 10:06:03;;;;;;;4.80;1.25;;;;;;;;;;4992725;28;20030;-93
2022/07/03 10:08:29;;;;;;;2.15;1.20;;;;;;;;;;4992677;28;20042;-95
2022/07/03 10:10:55;;;;;;;1.50;0.90;;;;;;;;;;4994649;28;20450;-94
2022/07/03 10:13:24;;;;;;;0.77;0.70;;;;;;;;;;5005029;28;20030;-93
2022/07/03 10:15:51;;;;;;;3.05;0.93;;;;;;;;;;4989452;28;20045;-92
2022/07/03 10:18:20;;;;;;;0.73;0.63;;;;;;;;;;5002562;28;20030;-92
2022/07/03 10:20:47;;;;;;;2.53;1.00;;;;;;;;;;4988991;28;20057;-92
2022/07/03 10:23:15;;;;;;;1.55;1.10;;;;;;;;;;4989696;28;20513;-93
2022/07/03 10:25:42;;;;;;;2.28;1.00;;;;;;;;;;4991649;28;20088;-93
2022/07/03 10:28:09;;;;;;;2.65;1.02;;;;;;;;;;5012150;28;20064;-94
2022/07/03 10:30:35;;;;;;;0.73;0.60;;;;;;;;;;4998718;28;20136;-93
2022/07/03 10:33:03;;;;;;;0.88;0.88;;;;;;;;;;4988424;28;20651;-92
2022/07/03 10:35:33;;;;;;;2.85;1.10;;;;;;;;;;4994114;28;20040;-93
2022/07/03 10:38:02;;;;;;;4.95;1.02;;;;;;;;;;4984415;28;20072;-94
2022/07/03 10:46:15;;;;;;;1.27;1.10;;;;;;;;;;5005378;28;20151;-93
2022/07/03 10:48:57;;;;;;;3.28;1.10;;;;;;;;;;5002825;28;20025;-94
2022/07/03 10:51:26;;;;;;;4.22;1.20;;;;;;;;;;4987396;28;20551;-94
2022/07/03 10:54:11;;;;;;;0.98;0.95;;;;;;;;;;5005880;28;20069;-93
2022/07/03 10:56:56;;;;;;;3.55;1.13;;;;;;;;;;4988311;28;20120;-93
2022/07/03 10:59:22;;;;;;;2.92;1.10;;;;;;;;;;5006447;28;20026;-92
2022/07/03 11:01:48;;;;;;;2.05;1.15;;;;;;;;;;4997893;28;20070;-92
2022/07/03 11:04:14;;;;;;;3.92;1.30;;;;;;;;;;5004962;28;20073;-93
2022/07/03 11:06:52;;;;;;;2.38;1.13;;;;;;;;;;4990407;28;20058;-93
2022/07/03 11:09:18;;;;;;;6.63;1.20;;;;;;;;;;5007097;28;20505;-93
2022/07/03 11:12:00;;;;;;;3.40;1.40;;;;;;;;;;4993760;28;20041;-93
2022/07/03 11:14:27;;;;;;;1.92;1.08;;;;;;;;;;5011546;28;20033;-92
2022/07/03 11:17:12;;;;;;;4.38;1.48;;;;;;;;;;4991917;28;20433;-93
2022/07/03 11:19:38;;;;;;;3.00;1.23;;;;;;;;;;4993320;28;20026;-88
2022/07/03 11:22:21;;;;;;;3.45;1.10;;;;;;;;;;5000836;28;20034;-89
2022/07/03 11:24:51;;;;;;;1.63;0.80;;;;;;;;;;4987002;28;20029;-90
2022/07/03 11:27:20;;;;;;;1.00;0.70;;;;;;;;;;5000249;28;20029;-91
2022/07/03 11:29:54;;;;;;;0.63;0.63;;;;;;;;;;5005616;28;20037;-91
2022/07/03 11:32:38;;;;;;;2.63;1.08;;;;;;;;;;5001094;28;20505;-88
2022/07/03 11:35:05;;;;;;;2.25;1.10;;;;;;;;;;5003484;28;20516;-87
2022/07/03 11:37:31;;;;;;;7.93;1.60;;;;;;;;;;5001636;28;20105;-91
2022/07/03 11:39:59;;;;;;;1.50;0.93;;;;;;;;;;5003906;28;20037;-90
2022/07/03 11:42:25;;;;;;;2.25;1.30;;;;;;;;;;4999150;28;20038;-90
2022/07/03 11:45:34;;;;;;;4.53;1.42;;;;;;;;;;4978453;28;20046;-94
2022/07/03 11:48:21;;;;;;;1.95;1.10;;;;;;;;;;4975330;28;20706;-95
2022/07/03 11:51:19;;;;;;;1.92;1.10;;;;;;;;;;4984299;28;20389;-94
2022/07/03 11:53:45;;;;;;;1.80;1.40;;;;;;;;;;4965889;28;20053;-96
2022/07/03 11:56:39;;;;;;;3.15;1.60;;;;;;;;;;4988714;28;20406;-93
2022/07/03 11:59:29;;;;;;;;;;;;;;;;;;;;;
2022/07/03 12:02:02;;;;;;;6.30;1.80;;;;;;;;;;5004578;28;20042;-95
2022/07/03 12:04:28;;;;;;;5.43;1.55;;;;;;;;;;4982370;28;20093;-94
2022/07/03 12:07:04;;;;;;;4.38;1.50;;;;;;;;;;4985787;28;20339;-94
2022/07/03 12:09:34;;;;;;;4.13;1.50;;;;;;;;;;4970796;28;20050;-94
2022/07/03 12:12:04;;;;;;;4.57;1.55;;;;;;;;;;4988513;28;20068;-95
2022/07/03 12:14:36;;;;;;;5.63;1.63;;;;;;;;;;4995234;28;20048;-94
2022/07/03 12:17:05;;;;;;;2.10;1.13;;;;;;;;;;4987360;28;20496;-94
2022/07/03 12:19:34;;;;;;;5.72;1.80;;;;;;;;;;4987245;28;20500;-93
2022/07/03 12:22:15;;;;;;;6.65;1.48;;;;;;;;;;4987377;28;20110;-92
2022/07/03 12:25:10;;;;;;;7.32;1.80;;;;;;;;;;5005405;28;20441;-95
2022/07/03 12:27:41;;;;;;;6.03;1.58;;;;;;;;;;4990494;28;20046;-93
2022/07/03 12:30:27;;;;;;;4.15;1.17;;;;;;;;;;4993961;28;20152;-96
2022/07/03 12:33:10;;;;;;;3.50;1.30;;;;;;;;;;4974663;28;20041;-93
2022/07/03 12:35:37;;;;;;;3.95;1.40;;;;;;;;;;4988289;28;20053;-93
2022/07/03 12:38:03;;;;;;;2.80;1.08;;;;;;;;;;4989852;28;20026;-93
2022/07/03 12:40:31;;;;;;;3.95;1.13;;;;;;;;;;4991559;28;20037;-95
2022/07/03 12:42:58;;;;;;;4.10;1.08;;;;;;;;;;4988017;28;20030;-93
2022/07/03 12:45:31;;;;;;;2.85;1.27;;;;;;;;;;4986835;28;20053;-94
2022/07/03 12:48:06;;;;;;;2.65;0.95;;;;;;;;;;4975328;28;20046;-94
2022/07/03 12:50:51;;;;;;;3.63;1.20;;;;;;;;;;4984549;28;20084;-95
2022/07/03 12:53:30;;;;;;;6.22;1.30;;;;;;;;;;4983416;28;20503;-93
2022/07/03 12:56:06;;;;;;;5.80;1.20;;;;;;;;;;4968973;28;20026;-95
2022/07/03 13:01:26;;;;;;;3.08;1.17;;;;;;;;;;4989414;28;20384;-93
2022/07/03 13:03:52;;;;;;;4.57;1.33;;;;;;;;;;4983090;28;20030;-93
2022/07/03 13:06:20;;;;;;;5.97;1.38;;;;;;;;;;4985838;28;20449;-93
2022/07/03 13:08:50;;;;;;;3.15;1.52;;;;;;;;;;4968956;28;20133;-92
2022/07/03 13:11:28;;;;;;;8.68;1.75;;;;;;;;;;4965216;28;20528;-95
2022/07/03 13:13:57;;;;;;;4.65;1.40;;;;;;;;;;4980355;28;20463;-94
2022/07/03 13:16:24;;;;;;;4.38;1.48;;;;;;;;;;4974602;28;20030;-93
2022/07/03 13:19:08;;;;;;;4.30;1.45;;;;;;;;;;4977676;28;20029;-92
2022/07/03 13:21:38;;;;;;;2.75;1.60;;;;;;;;;;4984314;28;20089;-93
2022/07/03 13:24:07;;;;;;;2.88;1.30;;;;;;;;;;4965840;28;20045;-94
2022/07/03 13:26:40;;;;;;;3.60;1.20;;;;;;;;;;4974808;28;20449;-94
2022/07/03 13:29:10;;;;;;;4.88;1.20;;;;;;;;;;4978559;28;20054;-93
2022/07/03 13:31:40;;;;;;;4.40;1.17;;;;;;;;;;4973948;28;20023;-94
2022/07/03 13:34:07;;;;;;;6.55;1.35;;;;;;;;;;4976932;28;20026;-93
2022/07/03 13:36:36;;;;;;;3.40;1.30;;;;;;;;;;4988631;28;20037;-94
2022/07/03 13:39:12;;;;;;;;;;;;;;;;;;;;;
2022/07/03 13:41:38;;;;;;;2.78;1.50;;;;;;;;;;4990264;28;20045;-94
2022/07/03 13:44:04;;;;;;;6.13;1.70;;;;;;;;;;4984484;28;20540;-94
2022/07/03 13:46:31;;;;;;;4.78;1.33;;;;;;;;;;4969456;28;20060;-93
2022/07/03 13:49:04;;;;;;;7.45;1.35;;;;;;;;;;5005940;28;20556;-93
2022/07/03 13:51:31;;;;;;;2.97;1.63;;;;;;;;;;4989871;28;20037;-93
2022/07/03 13:53:59;;;;;;;2.10;1.23;;;;;;;;;;4991828;28;20527;-95
2022/07/03 13:56:34;;;;;;;3.58;1.50;;;;;;;;;;4987985;28;20037;-93
2022/07/03 13:59:12;;;;;;;3.63;1.65;;;;;;;;;;4992075;28;20473;-94
2022/07/03 14:01:38;;;;;;;2.65;1.20;;;;;;;;;;5004867;28;20026;-93
2022/07/03 14:04:04;;;;;;;2.72;1.48;;;;;;;;;;4991233;28;20073;-94
2022/07/03 14:06:34;;;;;;;2.45;1.35;;;;;;;;;;5000786;28;20030;-93
2022/07/03 14:09:13;;;;;;;4.05;1.67;;;;;;;;;;4990582;28;20440;-96
2022/07/03 14:11:41;;;;;;;4.63;1.80;;;;;;;;;;5007500;28;20038;-93
2022/07/03 14:14:08;;;;;;;11.30;2.33;;;;;;;;;;4993665;28;20022;-94
2022/07/03 14:16:34;;;;;;;7.47;2.50;;;;;;;;;;5000081;28;20064;-94
2022/07/03 14:19:03;;;;;;;6.53;2.72;;;;;;;;;;4989016;28;20124;-94
2022/07/03 14:21:29;;;;;;;13.80;2.95;;;;;;;;;;5011439;28;20061;-90
2022/07/03 14:23:55;;;;;;;16.42;3.53;;;;;;;;;;4991422;28;20079;-95
2022/07/03 14:34:37;;;;;;;21.75;2.83;;;;;;;;;;5003827;28;20044;-93
2022/07/03 14:37:03;;;;;;;7.20;2.83;;;;;;;;;;4985442;28;20042;-93
2022/07/03 14:39:29;;;;;;;9.50;2.80;;;;;;;;;;4990346;28;20044;-93
2022/07/03 14:42:02;;;;;;;8.18;2.70;;;;;;;;;;4989073;28;20392;-93
2022/07/03 14:44:34;;;;;;;4.97;1.80;;;;;;;;;;4990737;28;20049;-93
2022/07/03 14:47:01;;;;;;;8.68;2.92;;;;;;;;;;5001190;28;20038;-93
2022/07/03 14:49:35;;;;;;;6.90;2.60;;;;;;;;;;4988738;28;20057;-94
2022/07/03 14:52:07;;;;;;;4.22;2.67;;;;;;;;;;5006430;28;20057;-93
2022/07/03 14:54:56;;;;;;;24.67;3.63;;;;;;;;;;4988802;28;20479;-94
2022/07/03 14:57:44;;;;;;;11.73;3.17;;;;;;;;;;5004932;28;20030;-93
2022/07/03 15:00:10;;;;;;;9.02;3.35;;;;;;;;;;4992071;28;20485;-93
2022/07/03 15:02:39;;;;;;;9.32;3.67;;;;;;;;;;4992522;28;20033;-93
2022/07/03 15:05:06;;;;;;;8.80;3.65;;;;;;;;;;4991476;28;20470;-93
2022/07/03 15:07:38;;;;;;;15.45;4.28;;;;;;;;;;5006840;28;20038;-94
2022/07/03 15:10:05;;;;;;;8.75;3.88;;;;;;;;;;5008061;28;20035;-94
2022/07/03 15:12:36;;;;;;;9.88;3.83;;;;;;;;;;5005688;28;20026;-93
2022/07/03 15:15:03;;;;;;;6.38;3.65;;;;;;;;;;5005766;28;20022;-95
2022/07/03 15:17:29;;;;;;;8.20;3.60;;;;;;;;;;5004282;28;20032;-93
2022/07/03 15:19:56;;;;;;;9.50;3.75;;;;;;;;;;4989783;28;20030;-93
2022/07/03 15:22:27;;;;;;;5.03;2.92;;;;;;;;;;4990601;28;20038;-93
2022/07/03 15:24:53;;;;;;;8.00;3.78;;;;;;;;;;5006081;28;20095;-94
2022/07/03 15:27:21;;;;;;;7.72;3.90;;;;;;;;;;4989624;28;20478;-94
2022/07/03 15:29:47;;;;;;;6.75;2.78;;;;;;;;;;4990069;28;20076;-94